createdAt,value
2018-02-09T00:02:25.679Z,1.08
2018-02-09T00:04:52.020Z,1.09
2018-02-09T00:07:18.403Z,1.13
2018-02-09T00:09:44.669Z,1.15
2018-02-09T00:12:10.952Z,1.19
2018-02-09T00:14:37.312Z,1.19
2018-02-09T00:17:04.003Z,1.20
2018-02-09T00:19:30.238Z,1.19
2018-02-09T00:21:56.555Z,1.16
2018-02-09T00:24:22.786Z,1.17
2018-02-09T00:26:49.679Z,1.14
2018-02-09T00:29:16.058Z,1.12
2018-02-09T00:31:42.321Z,1.11
2018-02-09T00:34:08.584Z,1.08
2018-02-09T00:36:34.865Z,1.07
2018-02-09T00:39:01.199Z,1.05
2018-02-09T00:41:27.461Z,1.03
2018-02-09T00:43:53.737Z,1.01
2018-02-09T00:46:19.962Z,1.00
2018-02-09T00:48:46.380Z,0.96
2018-02-09T00:51:12.703Z,0.92
2018-02-09T00:53:38.984Z,0.90
2018-02-09T00:56:05.238Z,0.91
2018-02-09T00:58:31.584Z,0.92
2018-02-09T01:00:57.890Z,0.90
2018-02-09T01:03:24.111Z,0.89
2018-02-09T01:05:50.346Z,0.89
2018-02-09T01:08:16.777Z,0.88
2018-02-09T01:10:43.090Z,0.91
2018-02-09T01:13:09.274Z,0.93
2018-02-09T01:15:35.531Z,0.94
2018-02-09T01:18:01.855Z,0.96
2018-02-09T01:20:28.158Z,0.94
2018-02-09T01:22:54.371Z,0.95
2018-02-09T01:25:20.671Z,0.94
2018-02-09T01:27:46.994Z,0.95
2018-02-09T01:30:13.360Z,0.95
2018-02-09T01:32:39.699Z,0.92
2018-02-09T01:35:05.933Z,0.93
2018-02-09T01:37:32.266Z,0.94
2018-02-09T01:39:58.544Z,0.96
2018-02-09T01:42:24.782Z,0.95
2018-02-09T01:44:50.993Z,0.95
2018-02-09T01:47:17.324Z,0.98
2018-02-09T01:49:43.596Z,0.99
2018-02-09T01:52:09.810Z,0.97
2018-02-09T01:54:36.141Z,0.96
2018-02-09T01:57:02.715Z,0.96
2018-02-09T01:59:29.085Z,0.95
2018-02-09T02:01:55.356Z,0.96
2018-02-09T02:04:21.600Z,0.96
2018-02-09T02:06:47.870Z,0.96
2018-02-09T02:09:14.208Z,0.96
2018-02-09T02:11:40.918Z,0.96
2018-02-09T02:14:07.198Z,0.95
2018-02-09T02:16:33.467Z,0.92
2018-02-09T02:18:59.759Z,0.93
2018-02-09T02:21:26.015Z,0.91
2018-02-09T02:23:52.371Z,0.89
2018-02-09T02:26:18.596Z,0.89
2018-02-09T02:28:44.872Z,0.87
2018-02-09T02:31:11.129Z,0.86
2018-02-09T02:33:37.343Z,0.85
2018-02-09T02:36:03.597Z,0.86
2018-02-09T02:38:29.988Z,0.84
2018-02-09T02:40:56.190Z,0.82
2018-02-09T02:43:22.547Z,0.82
2018-02-09T02:45:48.748Z,0.81
2018-02-09T02:48:14.981Z,0.80
2018-02-09T02:50:41.263Z,0.81
2018-02-09T02:53:07.512Z,0.83
2018-02-09T02:55:33.728Z,0.78
2018-02-09T02:58:00.030Z,0.79
2018-02-09T03:00:26.302Z,0.82
2018-02-09T03:02:52.501Z,0.81
2018-02-09T03:05:18.816Z,0.80
2018-02-09T03:07:45.117Z,0.81
2018-02-09T03:10:11.343Z,0.82
2018-02-09T03:12:37.587Z,0.82
2018-02-09T03:15:03.887Z,0.82
2018-02-09T03:17:30.258Z,0.81
2018-02-09T03:19:56.558Z,0.81
2018-02-09T03:22:22.774Z,0.83
2018-02-09T03:24:49.058Z,0.84
2018-02-09T03:27:15.326Z,0.82
2018-02-09T03:29:41.628Z,0.83
2018-02-09T03:32:07.894Z,0.84
2018-02-09T03:34:34.188Z,0.86
2018-02-09T03:37:00.470Z,0.83
2018-02-09T03:39:27.638Z,0.82
2018-02-09T03:41:53.873Z,0.81
2018-02-09T03:44:20.063Z,0.86
2018-02-09T03:46:46.365Z,0.83
2018-02-09T03:49:12.608Z,0.80
2018-02-09T03:51:38.883Z,0.78
2018-02-09T03:54:05.227Z,0.82
2018-02-09T03:56:31.503Z,0.84
2018-02-09T03:58:57.812Z,0.84
2018-02-09T04:01:24.142Z,0.85
2018-02-09T04:03:50.378Z,0.85
2018-02-09T04:06:16.580Z,0.85
2018-02-09T04:08:43.009Z,0.87
2018-02-09T04:11:09.222Z,0.87
2018-02-09T04:13:35.440Z,0.92
2018-02-09T04:16:01.683Z,0.92
2018-02-09T04:18:27.955Z,0.96
2018-02-09T04:20:54.203Z,1.00
2018-02-09T04:23:20.469Z,1.00
2018-02-09T04:25:46.761Z,0.98
2018-02-09T04:28:13.069Z,1.01
2018-02-09T04:30:39.363Z,1.04
2018-02-09T04:33:05.589Z,1.06
2018-02-09T04:35:31.778Z,1.04
2018-02-09T04:37:58.055Z,1.03
2018-02-09T04:40:24.270Z,1.02
2018-02-09T04:42:50.475Z,1.02
2018-02-09T04:45:16.734Z,1.02
2018-02-09T04:47:43.073Z,1.01
2018-02-09T04:50:09.323Z,0.99
2018-02-09T04:52:35.592Z,0.96
2018-02-09T04:55:01.860Z,0.97
2018-02-09T04:57:28.115Z,0.96
2018-02-09T04:59:54.377Z,0.97
2018-02-09T05:02:20.685Z,0.99
2018-02-09T05:04:46.880Z,0.99
2018-02-09T05:07:13.092Z,0.98
2018-02-09T05:09:39.402Z,1.00
2018-02-09T05:12:05.661Z,0.95
2018-02-09T05:14:31.905Z,0.96
2018-02-09T05:16:58.170Z,1.00
2018-02-09T05:19:24.497Z,0.98
2018-02-09T05:21:50.668Z,0.99
2018-02-09T05:24:16.917Z,0.98
2018-02-09T05:26:43.212Z,0.99
2018-02-09T05:29:09.484Z,0.99
2018-02-09T05:31:42.646Z,0.98
2018-02-09T05:34:08.920Z,0.95
2018-02-09T05:36:35.190Z,0.95
2018-02-09T05:39:01.552Z,0.93
2018-02-09T05:41:27.800Z,0.93
2018-02-09T05:43:54.046Z,0.92
2018-02-09T05:46:20.960Z,0.90
2018-02-09T05:48:47.244Z,0.93
2018-02-09T05:51:13.480Z,0.93
2018-02-09T05:53:39.830Z,0.96
2018-02-09T05:56:06.096Z,0.99
2018-02-09T05:58:32.391Z,1.01
2018-02-09T06:00:58.665Z,1.01
2018-02-09T06:03:24.889Z,1.03
2018-02-09T06:05:51.132Z,1.04
2018-02-09T06:08:17.478Z,1.05
2018-02-09T06:10:43.757Z,1.05
2018-02-09T06:13:10.055Z,1.08
2018-02-09T06:15:36.335Z,1.10
2018-02-09T06:18:02.663Z,1.11
2018-02-09T06:20:30.245Z,1.10
2018-02-09T06:22:56.532Z,1.08
2018-02-09T06:25:22.771Z,1.07
2018-02-09T06:27:49.051Z,1.09
2018-02-09T06:30:15.358Z,1.07
2018-02-09T06:32:41.606Z,1.06
2018-02-09T06:35:07.831Z,1.08
2018-02-09T06:37:34.120Z,1.07
2018-02-09T06:40:00.453Z,1.03
2018-02-09T06:42:26.708Z,1.01
2018-02-09T06:44:52.995Z,1.03
2018-02-09T06:47:19.247Z,1.02
2018-02-09T06:49:45.506Z,1.00
2018-02-09T06:52:11.904Z,0.98
2018-02-09T06:54:38.136Z,0.97
2018-02-09T06:57:04.421Z,0.94
2018-02-09T06:59:30.721Z,0.95
2018-02-09T07:01:56.979Z,0.96
2018-02-09T07:04:23.172Z,0.93
2018-02-09T07:06:49.503Z,0.95
2018-02-09T07:09:15.775Z,0.97
2018-02-09T07:11:42.028Z,0.93
2018-02-09T07:14:08.323Z,0.96
2018-02-09T07:16:34.630Z,0.95
2018-02-09T07:19:00.872Z,0.96
2018-02-09T07:21:27.169Z,0.94
2018-02-09T07:23:53.442Z,0.94
2018-02-09T07:26:19.921Z,0.95
2018-02-09T07:28:46.205Z,0.93
2018-02-09T07:31:12.500Z,0.91
2018-02-09T07:33:38.858Z,0.94
2018-02-09T07:36:05.068Z,0.92
2018-02-09T07:38:31.369Z,0.90
2018-02-09T07:40:57.588Z,0.95
2018-02-09T07:43:23.785Z,0.98
2018-02-09T07:45:50.051Z,0.99
2018-02-09T07:48:16.292Z,1.01
2018-02-09T07:50:42.515Z,1.03
2018-02-09T07:53:08.807Z,1.05
2018-02-09T07:55:35.088Z,1.03
2018-02-09T07:58:01.362Z,1.02
2018-02-09T08:00:27.708Z,1.03
2018-02-09T08:02:53.926Z,1.08
2018-02-09T08:05:20.196Z,1.13
2018-02-09T08:07:46.405Z,1.11
2018-02-09T08:10:12.750Z,1.14
2018-02-09T08:12:38.952Z,1.18
2018-02-09T08:15:05.280Z,1.22
2018-02-09T08:17:31.568Z,1.27
2018-02-09T08:19:57.955Z,1.22
2018-02-09T08:22:24.176Z,1.24
2018-02-09T08:24:50.410Z,1.20
2018-02-09T08:27:16.705Z,1.18
2018-02-09T08:29:43.932Z,1.14
2018-02-09T08:32:10.133Z,1.08
2018-02-09T08:34:36.403Z,1.01
2018-02-09T08:37:02.611Z,0.93
2018-02-09T08:39:29.071Z,0.91
2018-02-09T08:41:55.303Z,0.84
2018-02-09T08:44:21.550Z,0.80
2018-02-09T08:46:47.828Z,0.78
2018-02-09T08:49:14.130Z,0.71
2018-02-09T08:51:40.412Z,0.70
2018-02-09T08:54:06.701Z,0.71
2018-02-09T08:56:32.994Z,0.65
2018-02-09T08:58:59.263Z,0.66
2018-02-09T09:01:25.504Z,0.65
2018-02-09T09:03:51.800Z,0.63
2018-02-09T09:06:18.174Z,0.62
2018-02-09T09:08:44.369Z,0.61
2018-02-09T09:11:10.612Z,0.62
2018-02-09T09:13:36.925Z,0.62
2018-02-09T09:16:03.210Z,0.63
2018-02-09T09:18:29.436Z,0.66
2018-02-09T09:20:55.714Z,0.66
2018-02-09T09:23:21.947Z,0.66
2018-02-09T09:25:48.203Z,0.65
2018-02-09T09:28:14.500Z,0.69
2018-02-09T09:30:40.782Z,0.66
2018-02-09T09:33:07.055Z,0.61
2018-02-09T09:35:33.260Z,0.63
2018-02-09T09:37:59.509Z,0.67
2018-02-09T09:40:32.724Z,0.67
2018-02-09T09:42:59.227Z,0.69
2018-02-09T09:45:25.431Z,0.71
2018-02-09T09:47:51.697Z,0.73
2018-02-09T09:50:17.946Z,0.72
2018-02-09T09:52:44.132Z,0.68
2018-02-09T09:55:10.419Z,0.63
2018-02-09T09:57:36.645Z,0.64
2018-02-09T10:00:02.917Z,0.64
2018-02-09T10:02:39.078Z,0.60
2018-02-09T10:05:05.333Z,0.61
2018-02-09T10:07:31.633Z,0.59
2018-02-09T10:09:57.817Z,0.60
2018-02-09T10:12:24.399Z,0.56
2018-02-09T10:14:50.559Z,0.57
2018-02-09T10:17:16.707Z,0.53
2018-02-09T10:19:42.981Z,0.50
2018-02-09T10:22:09.274Z,0.49
2018-02-09T10:24:35.494Z,0.53
2018-02-09T10:27:01.696Z,0.55
2018-02-09T10:29:27.951Z,0.48
2018-02-09T10:31:54.199Z,0.51
2018-02-09T10:34:20.319Z,0.58
2018-02-09T10:36:46.432Z,0.64
2018-02-09T10:39:12.577Z,0.67
2018-02-09T10:41:38.713Z,0.68
2018-02-09T10:44:04.852Z,0.67
2018-02-09T10:46:31.005Z,0.70
2018-02-09T10:48:57.135Z,0.76
2018-02-09T10:51:23.316Z,0.78
2018-02-09T10:53:49.425Z,0.79
2018-02-09T10:56:15.618Z,0.80
2018-02-09T10:58:41.781Z,0.80
2018-02-09T11:01:08.084Z,0.80
2018-02-09T11:03:34.522Z,0.86
2018-02-09T11:06:00.770Z,0.87
2018-02-09T11:08:26.934Z,0.88
2018-02-09T11:10:53.193Z,0.90
2018-02-09T11:13:19.367Z,0.90
2018-02-09T11:15:45.520Z,0.95
2018-02-09T11:18:11.703Z,0.99
2018-02-09T11:20:38.009Z,1.04
2018-02-09T11:23:04.171Z,1.05
2018-02-09T11:25:30.399Z,1.05
2018-02-09T11:27:56.750Z,1.07
2018-02-09T11:30:24.251Z,1.14
2018-02-09T11:32:50.398Z,1.19
2018-02-09T11:35:16.612Z,1.18
2018-02-09T11:37:42.813Z,1.18
2018-02-09T11:40:09.041Z,1.26
2018-02-09T11:42:35.190Z,1.21
2018-02-09T11:45:01.391Z,1.21
2018-02-09T11:47:28.210Z,1.25
2018-02-09T11:49:54.495Z,1.28
2018-02-09T11:52:20.730Z,1.25
2018-02-09T11:54:47.001Z,1.20
2018-02-09T11:57:13.265Z,1.24
2018-02-09T11:59:39.494Z,1.20
2018-02-09T12:02:05.670Z,1.23
2018-02-09T12:04:31.909Z,1.18
2018-02-09T12:06:58.222Z,1.22
2018-02-09T12:09:24.461Z,1.22
2018-02-09T12:11:50.656Z,1.16
2018-02-09T12:14:16.856Z,1.14
2018-02-09T12:16:43.054Z,1.18
2018-02-09T12:19:09.367Z,1.15
2018-02-09T12:21:35.644Z,1.13
2018-02-09T12:24:01.889Z,1.11
2018-02-09T12:26:28.285Z,1.15
2018-02-09T12:28:54.487Z,1.11
2018-02-09T12:31:20.703Z,1.13
2018-02-09T12:33:46.859Z,1.13
2018-02-09T12:36:13.141Z,1.17
2018-02-09T12:38:39.386Z,1.18
2018-02-09T12:41:05.614Z,1.15
2018-02-09T12:43:31.766Z,1.13
2018-02-09T12:45:58.034Z,1.11
2018-02-09T12:48:24.200Z,1.09
2018-02-09T12:50:50.441Z,1.12
2018-02-09T12:53:16.656Z,1.11
2018-02-09T12:55:42.892Z,1.08
2018-02-09T12:58:09.042Z,1.14
2018-02-09T13:00:35.312Z,1.20
2018-02-09T13:03:01.509Z,1.23
2018-02-09T13:05:27.673Z,1.21
2018-02-09T13:07:53.874Z,1.13
2018-02-09T13:10:20.099Z,1.16
2018-02-09T13:12:58.326Z,1.11
2018-02-09T13:15:24.558Z,1.11
2018-02-09T13:17:50.753Z,1.12
2018-02-09T13:20:16.984Z,1.10
2018-02-09T13:22:55.230Z,1.15
2018-02-09T13:25:21.418Z,1.17
2018-02-09T13:27:47.667Z,1.15
2018-02-09T13:30:13.961Z,1.19
2018-02-09T13:32:52.375Z,1.21
2018-02-09T13:35:18.579Z,1.18
2018-02-09T13:37:44.819Z,1.16
2018-02-09T13:40:11.096Z,1.21
2018-02-09T13:42:37.415Z,1.23
2018-02-09T13:45:03.619Z,1.19
2018-02-09T13:47:29.837Z,1.21
2018-02-09T13:49:56.008Z,1.24
2018-02-09T13:52:22.226Z,1.25
2018-02-09T13:54:48.444Z,1.25
2018-02-09T14:00:18.346Z,1.28
2018-02-09T14:02:44.750Z,1.29
2018-02-09T14:05:11.149Z,1.29
2018-02-09T14:07:37.327Z,1.27
2018-02-09T14:10:03.581Z,1.28
2018-02-09T14:12:29.989Z,1.32
2018-02-09T14:14:56.229Z,1.34
2018-02-09T14:17:22.463Z,1.34
2018-02-09T14:19:48.710Z,1.35
2018-02-09T14:22:14.886Z,1.37
2018-02-09T14:24:41.106Z,1.35
2018-02-09T14:27:07.288Z,1.35
2018-02-09T14:29:33.404Z,1.35
2018-02-09T14:31:59.578Z,1.36
2018-02-09T14:34:25.696Z,1.36
2018-02-09T14:36:51.882Z,1.39
2018-02-09T14:39:18.068Z,1.40
2018-02-09T14:41:44.226Z,1.42
2018-02-09T14:44:10.356Z,1.41
2018-02-09T14:46:36.476Z,1.45
2018-02-09T14:49:02.716Z,1.46
2018-02-09T14:51:28.903Z,1.51
2018-02-09T14:53:55.038Z,1.59
2018-02-09T14:56:21.212Z,1.64
2018-02-09T14:58:47.329Z,1.66
2018-02-09T15:01:13.651Z,1.67
2018-02-09T15:03:39.755Z,1.69
2018-02-09T15:06:05.880Z,1.72
2018-02-09T15:08:32.027Z,1.77
2018-02-09T15:10:58.320Z,1.81
2018-02-09T15:13:24.583Z,1.86
2018-02-09T15:15:50.791Z,1.87
2018-02-09T15:18:17.003Z,1.92
2018-02-09T15:20:43.244Z,1.93
2018-02-09T15:26:12.527Z,2.03
2018-02-09T15:28:38.779Z,2.06
2018-02-09T15:31:05.005Z,2.05
2018-02-09T15:33:31.257Z,2.04
2018-02-09T15:35:57.540Z,2.07
2018-02-09T15:38:23.718Z,2.09
2018-02-09T15:40:50.846Z,2.08
2018-02-09T15:43:17.276Z,2.09
2018-02-09T15:45:43.472Z,2.12
2018-02-09T15:48:09.878Z,2.13
2018-02-09T15:53:08.375Z,2.19
2018-02-09T15:55:34.820Z,2.24
2018-02-09T15:58:01.151Z,2.29
2018-02-09T16:00:27.402Z,2.31
2018-02-09T16:02:53.670Z,2.37
2018-02-09T16:05:19.869Z,2.43
2018-02-09T16:07:46.146Z,2.48
2018-02-09T16:10:12.409Z,2.52
2018-02-09T16:12:38.703Z,2.61
2018-02-09T16:15:04.923Z,2.65
2018-02-09T16:17:31.170Z,2.69
2018-02-09T16:19:57.532Z,2.69
2018-02-09T16:22:23.802Z,2.68
2018-02-09T16:24:50.026Z,2.75
2018-02-09T16:27:16.307Z,2.75
2018-02-09T16:29:42.583Z,2.76
2018-02-09T16:32:08.819Z,2.74
2018-02-09T16:34:35.099Z,2.72
2018-02-09T16:37:01.308Z,2.70
2018-02-09T16:39:27.546Z,2.69
2018-02-09T16:41:53.772Z,2.68
2018-02-09T16:44:19.965Z,2.73
2018-02-09T16:46:46.306Z,2.71
2018-02-09T16:49:12.672Z,2.70
2018-02-09T16:51:39.002Z,2.69
2018-02-09T16:54:05.240Z,2.66
2018-02-09T16:56:31.594Z,2.63
2018-02-09T16:58:57.741Z,2.62
2018-02-09T17:01:24.108Z,2.58
2018-02-09T17:03:50.237Z,2.55
2018-02-09T17:06:16.427Z,2.54
2018-02-09T17:08:42.571Z,2.51
2018-02-09T17:11:08.783Z,2.48
2018-02-09T17:13:34.916Z,2.44
2018-02-09T17:16:01.206Z,2.42
2018-02-09T17:18:27.343Z,2.41
2018-02-09T17:20:53.476Z,2.40
2018-02-09T17:23:19.639Z,2.39
2018-02-09T17:25:45.812Z,2.37
2018-02-09T17:28:12.064Z,2.32
2018-02-09T17:30:38.191Z,2.27
2018-02-09T17:33:04.378Z,2.23
2018-02-09T17:35:30.491Z,2.21
2018-02-09T17:37:56.612Z,2.22
2018-02-09T17:40:22.761Z,2.23
2018-02-09T17:42:49.025Z,2.23
2018-02-09T17:45:15.119Z,2.23
2018-02-09T17:47:41.259Z,2.24
2018-02-09T17:50:07.399Z,2.24
2018-02-09T17:52:33.590Z,2.23
2018-02-09T17:54:59.687Z,2.24
2018-02-09T17:57:25.883Z,2.23
2018-02-09T17:59:52.042Z,2.22
2018-02-09T18:02:18.222Z,2.21
2018-02-09T18:04:44.363Z,2.20
2018-02-09T18:07:10.488Z,2.18
2018-02-09T18:09:36.647Z,2.17
2018-02-09T18:12:02.866Z,2.16
2018-02-09T18:14:29.116Z,2.16
2018-02-09T18:16:55.672Z,2.13
2018-02-09T18:19:21.947Z,2.11
2018-02-09T18:21:48.201Z,2.08
2018-02-09T18:24:14.770Z,2.08
2018-02-09T18:26:41.075Z,2.10
2018-02-09T18:29:07.431Z,2.11
2018-02-09T18:31:33.977Z,2.08
2018-02-09T18:34:00.172Z,2.09
2018-02-09T18:36:26.409Z,2.07
2018-02-09T18:38:52.797Z,2.08
2018-02-09T18:41:19.112Z,2.09
2018-02-09T18:43:45.383Z,2.09
2018-02-09T18:46:11.740Z,2.08
2018-02-09T18:48:38.026Z,2.07
2018-02-09T18:51:04.248Z,2.05
2018-02-09T18:53:30.578Z,2.04
2018-02-09T18:55:56.852Z,2.06
2018-02-09T18:58:23.109Z,2.13
2018-02-09T19:00:49.297Z,2.20
2018-02-09T19:03:15.513Z,2.25
2018-02-09T19:05:41.775Z,2.26
2018-02-09T19:08:08.193Z,2.33
2018-02-09T19:10:34.407Z,2.34
2018-02-09T19:13:00.726Z,2.37
2018-02-09T19:15:27.078Z,2.41
2018-02-09T19:17:53.384Z,2.42
2018-02-09T19:20:20.535Z,2.47
2018-02-09T19:22:46.757Z,2.51
2018-02-09T19:25:12.987Z,2.52
2018-02-09T19:27:39.160Z,2.55
2018-02-09T19:30:05.457Z,2.56
2018-02-09T19:32:31.771Z,2.51
2018-02-09T19:34:57.941Z,2.46
2018-02-09T19:37:24.199Z,2.37
2018-02-09T19:39:50.395Z,2.31
2018-02-09T19:42:16.595Z,2.29
2018-02-09T19:47:26.858Z,2.33
2018-02-09T19:49:53.116Z,2.35
2018-02-09T19:52:19.330Z,2.37
2018-02-09T19:54:45.643Z,2.41
2018-02-09T19:57:11.948Z,2.46
2018-02-09T19:59:38.181Z,2.49
2018-02-09T20:02:04.371Z,2.50
2018-02-09T20:04:30.562Z,2.51
2018-02-09T20:06:56.799Z,2.45
2018-02-09T20:09:23.035Z,2.39
2018-02-09T20:11:49.580Z,2.37
2018-02-09T20:14:15.965Z,2.34
2018-02-09T20:16:42.519Z,2.29
2018-02-09T20:19:08.834Z,2.29
2018-02-09T20:21:35.033Z,2.30
2018-02-09T20:24:01.258Z,2.28
2018-02-09T20:26:27.512Z,2.26
2018-02-09T20:28:53.750Z,2.26
2018-02-09T20:31:20.032Z,2.27
2018-02-09T20:33:46.304Z,2.27
2018-02-09T20:36:12.546Z,2.29
2018-02-09T20:38:38.857Z,2.31
2018-02-09T20:41:05.028Z,2.32
2018-02-09T20:43:31.271Z,2.35
2018-02-09T20:45:57.514Z,2.41
2018-02-09T20:48:23.727Z,2.50
2018-02-09T20:50:49.949Z,2.56
2018-02-09T20:53:16.265Z,2.62
2018-02-09T20:55:42.470Z,2.70
2018-02-09T20:58:08.726Z,2.74
2018-02-09T21:00:34.935Z,2.80
2018-02-09T21:03:01.124Z,2.89
2018-02-09T21:05:27.740Z,2.92
2018-02-09T21:07:54.862Z,2.98
2018-02-09T21:10:21.068Z,3.00
2018-02-09T21:12:47.294Z,3.01
2018-02-09T21:15:13.492Z,3.01
2018-02-09T21:17:39.705Z,3.01
2018-02-09T21:20:05.929Z,2.99
2018-02-09T21:22:32.150Z,2.97
2018-02-09T21:24:58.369Z,2.97
2018-02-09T21:27:24.601Z,2.94
2018-02-09T21:29:50.855Z,2.92
2018-02-09T21:32:17.070Z,2.95
2018-02-09T21:34:43.343Z,2.99
2018-02-09T21:37:09.546Z,3.03
2018-02-09T21:39:35.720Z,3.07
2018-02-09T21:42:01.938Z,3.08
2018-02-09T21:44:28.091Z,3.10
2018-02-09T21:46:54.293Z,3.10
2018-02-09T21:49:20.448Z,3.14
2018-02-09T21:51:46.595Z,3.12
2018-02-09T21:54:12.769Z,3.11
2018-02-09T21:56:39.007Z,3.07
2018-02-09T21:59:05.132Z,3.06
2018-02-09T22:01:31.288Z,3.07
2018-02-09T22:03:57.535Z,3.08
2018-02-09T22:06:23.764Z,3.08
2018-02-09T22:08:49.987Z,3.07
2018-02-09T22:11:16.206Z,3.04
2018-02-09T22:13:42.360Z,3.00
2018-02-09T22:16:08.580Z,2.96
2018-02-09T22:18:34.721Z,2.94
2018-02-09T22:21:00.885Z,2.92
2018-02-09T22:23:27.065Z,2.93
2018-02-09T22:25:53.290Z,2.92
2018-02-09T22:28:19.492Z,2.91
2018-02-09T22:30:45.691Z,2.92
2018-02-09T22:33:11.849Z,2.92
2018-02-09T22:35:38.041Z,2.95
2018-02-09T22:38:04.286Z,2.97
2018-02-09T22:40:30.440Z,3.00
2018-02-09T22:42:56.640Z,3.04
2018-02-09T22:45:22.838Z,3.09
2018-02-09T22:47:49.096Z,3.11
2018-02-09T22:50:15.278Z,3.10
2018-02-09T22:52:41.420Z,3.08
2018-02-09T22:55:07.614Z,3.09
2018-02-09T22:57:33.889Z,3.10
2018-02-09T23:00:00.095Z,3.18
2018-02-09T23:02:26.285Z,3.21
2018-02-09T23:04:52.507Z,3.22
2018-02-09T23:07:18.758Z,3.33
2018-02-09T23:09:44.904Z,3.36
2018-02-09T23:12:11.050Z,3.38
2018-02-09T23:14:37.252Z,3.41
2018-02-09T23:17:03.479Z,3.45
2018-02-09T23:19:29.659Z,3.46
2018-02-09T23:21:55.797Z,3.48
2018-02-09T23:24:21.994Z,3.50
2018-02-09T23:26:48.223Z,3.52
2018-02-09T23:29:14.360Z,3.55
2018-02-09T23:31:40.580Z,3.56
2018-02-09T23:34:06.834Z,3.60
2018-02-09T23:36:33.088Z,3.62
2018-02-09T23:38:59.249Z,3.62
2018-02-09T23:41:25.428Z,3.64
2018-02-09T23:43:51.677Z,3.63
2018-02-09T23:46:17.878Z,3.60
2018-02-09T23:48:44.068Z,3.56
2018-02-09T23:51:10.264Z,3.53
2018-02-09T23:53:36.403Z,3.53
2018-02-09T23:56:02.652Z,3.53
2018-02-09T23:58:28.863Z,3.56
